sensor_id;sensor_type;location;lat;lon;timestamp;temperature;humidity
14236;DHT22;7202;50.718;7.072;2023-06-26T00:00:13;20.80;99.90
14236;DHT22;7202;50.718;7.072;2023-06-26T00:02:41;20.80;99.90
14236;DHT22;7202;50.718;7.072;2023-06-26T00:05:10;20.70;99.90
14236;DHT22;7202;50.718;7.072;2023-06-26T00:07:38;20.70;99.90
14236;DHT22;7202;50.718;7.072;2023-06-26T00:10:07;20.70;99.90
14236;DHT22;7202;50.718;7.072;2023-06-26T00:12:36;20.60;99.90
14236;DHT22;7202;50.718;7.072;2023-06-26T00:15:07;20.60;99.90
14236;DHT22;7202;50.718;7.072;2023-06-26T00:17:36;20.60;99.90
14236;DHT22;7202;50.718;7.072;2023-06-26T00:20:06;20.60;99.90
14236;DHT22;7202;50.718;7.072;2023-06-26T00:22:39;20.50;99.90
14236;DHT22;7202;50.718;7.072;2023-06-26T00:25:08;20.50;99.90
14236;DHT22;7202;50.718;7.072;2023-06-26T00:27:37;20.50;99.90
14236;DHT22;7202;50.718;7.072;2023-06-26T00:30:08;20.40;99.90
14236;DHT22;7202;50.718;7.072;2023-06-26T00:32:37;20.40;99.90
14236;DHT22;7202;50.718;7.072;2023-06-26T00:35:06;20.40;99.90
14236;DHT22;7202;50.718;7.072;2023-06-26T00:37:34;20.30;99.90
14236;DHT22;7202;50.718;7.072;2023-06-26T00:40:04;20.30;99.90
14236;DHT22;7202;50.718;7.072;2023-06-26T00:42:33;20.30;99.90
14236;DHT22;7202;50.718;7.072;2023-06-26T00:45:02;20.30;99.90
14236;DHT22;7202;50.718;7.072;2023-06-26T00:47:32;20.20;99.90
14236;DHT22;7202;50.718;7.072;2023-06-26T00:50:01;20.20;99.90
14236;DHT22;7202;50.718;7.072;2023-06-26T00:52:30;20.10;99.90
14236;DHT22;7202;50.718;7.072;2023-06-26T00:54:59;20.10;99.90
14236;DHT22;7202;50.718;7.072;2023-06-26T00:57:29;20.00;99.90
14236;DHT22;7202;50.718;7.072;2023-06-26T01:00:00;20.00;99.90
14236;DHT22;7202;50.718;7.072;2023-06-26T01:02:32;19.90;99.90
14236;DHT22;7202;50.718;7.072;2023-06-26T01:05:02;19.90;99.90
14236;DHT22;7202;50.718;7.072;2023-06-26T01:07:36;19.80;99.90
14236;DHT22;7202;50.718;7.072;2023-06-26T01:10:06;19.80;99.90
14236;DHT22;7202;50.718;7.072;2023-06-26T01:12:36;19.70;99.90
14236;DHT22;7202;50.718;7.072;2023-06-26T01:15:07;19.70;99.90
14236;DHT22;7202;50.718;7.072;2023-06-26T01:17:39;19.70;99.90
14236;DHT22;7202;50.718;7.072;2023-06-26T01:20:12;19.60;99.90
14236;DHT22;7202;50.718;7.072;2023-06-26T01:22:48;19.60;99.90
14236;DHT22;7202;50.718;7.072;2023-06-26T01:25:31;19.60;99.90
14236;DHT22;7202;50.718;7.072;2023-06-26T01:28:08;19.60;99.90
14236;DHT22;7202;50.718;7.072;2023-06-26T01:30:41;19.50;99.90
14236;DHT22;7202;50.718;7.072;2023-06-26T01:33:11;19.50;99.90
14236;DHT22;7202;50.718;7.072;2023-06-26T01:35:40;19.50;99.90
14236;DHT22;7202;50.718;7.072;2023-06-26T01:38:13;19.40;99.90
14236;DHT22;7202;50.718;7.072;2023-06-26T01:40:42;19.40;99.90
14236;DHT22;7202;50.718;7.072;2023-06-26T01:43:17;19.40;99.90
14236;DHT22;7202;50.718;7.072;2023-06-26T01:45:48;19.50;99.90
14236;DHT22;7202;50.718;7.072;2023-06-26T01:48:22;19.40;99.90
14236;DHT22;7202;50.718;7.072;2023-06-26T01:50:52;19.40;99.90
14236;DHT22;7202;50.718;7.072;2023-06-26T01:53:23;19.40;99.90
14236;DHT22;7202;50.718;7.072;2023-06-26T01:55:55;19.40;99.90
14236;DHT22;7202;50.718;7.072;2023-06-26T01:58:27;19.40;99.90
14236;DHT22;7202;50.718;7.072;2023-06-26T02:00:56;19.40;99.90
14236;DHT22;7202;50.718;7.072;2023-06-26T02:03:25;19.40;99.90
14236;DHT22;7202;50.718;7.072;2023-06-26T02:05:53;19.40;99.90
14236;DHT22;7202;50.718;7.072;2023-06-26T02:08:22;19.30;99.90
14236;DHT22;7202;50.718;7.072;2023-06-26T02:10:56;19.30;99.90
14236;DHT22;7202;50.718;7.072;2023-06-26T02:13:24;19.30;99.90
14236;DHT22;7202;50.718;7.072;2023-06-26T02:15:54;19.30;99.90
14236;DHT22;7202;50.718;7.072;2023-06-26T02:18:23;19.30;99.90
14236;DHT22;7202;50.718;7.072;2023-06-26T02:20:52;19.40;99.90
14236;DHT22;7202;50.718;7.072;2023-06-26T02:23:22;19.40;99.90
14236;DHT22;7202;50.718;7.072;2023-06-26T02:25:50;19.40;99.90
14236;DHT22;7202;50.718;7.072;2023-06-26T02:28:19;19.40;99.90
14236;DHT22;7202;50.718;7.072;2023-06-26T02:30:48;19.40;99.90
14236;DHT22;7202;50.718;7.072;2023-06-26T02:33:18;19.40;99.90
14236;DHT22;7202;50.718;7.072;2023-06-26T02:35:49;19.40;99.90
14236;DHT22;7202;50.718;7.072;2023-06-26T02:38:18;19.40;99.90
14236;DHT22;7202;50.718;7.072;2023-06-26T02:40:47;19.40;99.90
14236;DHT22;7202;50.718;7.072;2023-06-26T02:43:16;19.50;99.90
14236;DHT22;7202;50.718;7.072;2023-06-26T02:45:45;19.40;99.90
14236;DHT22;7202;50.718;7.072;2023-06-26T02:48:14;19.40;99.90
14236;DHT22;7202;50.718;7.072;2023-06-26T02:50:44;19.40;99.90
14236;DHT22;7202;50.718;7.072;2023-06-26T02:53:15;19.40;99.90
14236;DHT22;7202;50.718;7.072;2023-06-26T02:55:45;19.50;99.90
14236;DHT22;7202;50.718;7.072;2023-06-26T02:58:15;19.40;99.90
14236;DHT22;7202;50.718;7.072;2023-06-26T03:00:44;19.30;99.90
14236;DHT22;7202;50.718;7.072;2023-06-26T03:03:16;19.30;99.90
14236;DHT22;7202;50.718;7.072;2023-06-26T03:05:46;19.30;99.90
14236;DHT22;7202;50.718;7.072;2023-06-26T03:08:15;19.40;99.90
14236;DHT22;7202;50.718;7.072;2023-06-26T03:10:43;19.40;99.90
14236;DHT22;7202;50.718;7.072;2023-06-26T03:13:12;19.40;99.90
14236;DHT22;7202;50.718;7.072;2023-06-26T03:15:41;19.40;99.90
14236;DHT22;7202;50.718;7.072;2023-06-26T03:18:09;19.40;99.90
14236;DHT22;7202;50.718;7.072;2023-06-26T03:20:38;19.40;99.90
14236;DHT22;7202;50.718;7.072;2023-06-26T03:23:08;19.40;99.90
14236;DHT22;7202;50.718;7.072;2023-06-26T03:25:37;19.30;99.90
14236;DHT22;7202;50.718;7.072;2023-06-26T03:28:26;19.30;99.90
14236;DHT22;7202;50.718;7.072;2023-06-26T03:30:54;19.30;99.90
14236;DHT22;7202;50.718;7.072;2023-06-26T03:33:23;19.30;99.90
14236;DHT22;7202;50.718;7.072;2023-06-26T03:35:52;19.30;99.90
14236;DHT22;7202;50.718;7.072;2023-06-26T03:38:23;19.30;99.90
14236;DHT22;7202;50.718;7.072;2023-06-26T03:40:55;19.30;99.90
14236;DHT22;7202;50.718;7.072;2023-06-26T03:43:24;19.30;99.90
14236;DHT22;7202;50.718;7.072;2023-06-26T03:46:04;19.30;99.90
14236;DHT22;7202;50.718;7.072;2023-06-26T03:48:33;19.30;99.90
14236;DHT22;7202;50.718;7.072;2023-06-26T03:51:01;19.30;99.90
14236;DHT22;7202;50.718;7.072;2023-06-26T03:53:31;19.40;99.90
14236;DHT22;7202;50.718;7.072;2023-06-26T03:56:00;19.40;99.90
14236;DHT22;7202;50.718;7.072;2023-06-26T03:58:29;19.40;99.90
14236;DHT22;7202;50.718;7.072;2023-06-26T04:00:57;19.40;99.90
14236;DHT22;7202;50.718;7.072;2023-06-26T04:03:26;19.40;99.90
14236;DHT22;7202;50.718;7.072;2023-06-26T04:05:55;19.40;99.90
14236;DHT22;7202;50.718;7.072;2023-06-26T04:08:24;19.50;99.90
14236;DHT22;7202;50.718;7.072;2023-06-26T04:10:55;19.60;99.90
14236;DHT22;7202;50.718;7.072;2023-06-26T04:13:26;19.50;99.90
14236;DHT22;7202;50.718;7.072;2023-06-26T04:15:54;19.50;99.90
14236;DHT22;7202;50.718;7.072;2023-06-26T04:18:23;19.60;99.90
14236;DHT22;7202;50.718;7.072;2023-06-26T04:21:05;19.60;99.90
14236;DHT22;7202;50.718;7.072;2023-06-26T04:23:35;19.70;99.90
14236;DHT22;7202;50.718;7.072;2023-06-26T04:26:06;19.80;99.90
14236;DHT22;7202;50.718;7.072;2023-06-26T04:28:35;19.90;99.90
14236;DHT22;7202;50.718;7.072;2023-06-26T04:31:04;19.90;99.90
14236;DHT22;7202;50.718;7.072;2023-06-26T04:33:33;20.00;99.90
14236;DHT22;7202;50.718;7.072;2023-06-26T04:36:03;20.00;99.90
14236;DHT22;7202;50.718;7.072;2023-06-26T04:38:32;20.10;99.90
14236;DHT22;7202;50.718;7.072;2023-06-26T04:41:01;20.20;99.90
14236;DHT22;7202;50.718;7.072;2023-06-26T04:43:32;20.20;99.90
14236;DHT22;7202;50.718;7.072;2023-06-26T04:46:02;20.30;99.90
14236;DHT22;7202;50.718;7.072;2023-06-26T04:48:31;20.40;99.90
14236;DHT22;7202;50.718;7.072;2023-06-26T04:50:59;20.50;99.90
14236;DHT22;7202;50.718;7.072;2023-06-26T04:53:28;20.60;99.90
14236;DHT22;7202;50.718;7.072;2023-06-26T04:55:57;20.60;99.90
14236;DHT22;7202;50.718;7.072;2023-06-26T04:58:25;20.80;99.90
14236;DHT22;7202;50.718;7.072;2023-06-26T05:00:55;21.00;99.90
14236;DHT22;7202;50.718;7.072;2023-06-26T05:03:26;21.30;99.90
14236;DHT22;7202;50.718;7.072;2023-06-26T05:05:55;21.40;99.90
14236;DHT22;7202;50.718;7.072;2023-06-26T05:08:25;21.40;99.90
14236;DHT22;7202;50.718;7.072;2023-06-26T05:10:54;21.40;99.90
14236;DHT22;7202;50.718;7.072;2023-06-26T05:13:25;21.40;99.90
14236;DHT22;7202;50.718;7.072;2023-06-26T05:15:55;21.50;99.90
14236;DHT22;7202;50.718;7.072;2023-06-26T05:18:24;21.50;99.90
14236;DHT22;7202;50.718;7.072;2023-06-26T05:20:53;21.60;99.90
14236;DHT22;7202;50.718;7.072;2023-06-26T05:23:23;21.50;99.90
14236;DHT22;7202;50.718;7.072;2023-06-26T05:25:54;21.50;99.90
14236;DHT22;7202;50.718;7.072;2023-06-26T05:28:23;21.50;99.90
14236;DHT22;7202;50.718;7.072;2023-06-26T05:30:57;21.50;99.90
14236;DHT22;7202;50.718;7.072;2023-06-26T05:33:27;21.60;99.90
14236;DHT22;7202;50.718;7.072;2023-06-26T05:35:57;21.60;99.90
14236;DHT22;7202;50.718;7.072;2023-06-26T05:38:27;21.80;99.90
14236;DHT22;7202;50.718;7.072;2023-06-26T05:40:56;21.90;99.90
14236;DHT22;7202;50.718;7.072;2023-06-26T05:43:25;22.00;99.90
14236;DHT22;7202;50.718;7.072;2023-06-26T05:45:57;22.10;99.90
14236;DHT22;7202;50.718;7.072;2023-06-26T05:48:26;22.20;99.90
14236;DHT22;7202;50.718;7.072;2023-06-26T05:50:55;22.30;99.90
14236;DHT22;7202;50.718;7.072;2023-06-26T05:53:24;22.20;99.90
14236;DHT22;7202;50.718;7.072;2023-06-26T05:55:54;22.20;99.90
14236;DHT22;7202;50.718;7.072;2023-06-26T05:58:24;22.20;99.90
14236;DHT22;7202;50.718;7.072;2023-06-26T06:00:54;22.20;99.90
14236;DHT22;7202;50.718;7.072;2023-06-26T06:03:23;22.20;99.90
14236;DHT22;7202;50.718;7.072;2023-06-26T06:05:52;22.20;99.90
14236;DHT22;7202;50.718;7.072;2023-06-26T06:08:21;22.30;99.90
14236;DHT22;7202;50.718;7.072;2023-06-26T06:10:50;22.40;99.90
14236;DHT22;7202;50.718;7.072;2023-06-26T06:13:18;22.40;99.90
14236;DHT22;7202;50.718;7.072;2023-06-26T06:15:47;22.40;99.90
14236;DHT22;7202;50.718;7.072;2023-06-26T06:18:16;22.50;99.90
14236;DHT22;7202;50.718;7.072;2023-06-26T06:20:46;22.60;99.90
14236;DHT22;7202;50.718;7.072;2023-06-26T06:23:14;22.70;99.90
14236;DHT22;7202;50.718;7.072;2023-06-26T06:25:43;22.80;99.90
14236;DHT22;7202;50.718;7.072;2023-06-26T06:28:11;22.90;99.90
14236;DHT22;7202;50.718;7.072;2023-06-26T06:30:43;23.00;99.90
14236;DHT22;7202;50.718;7.072;2023-06-26T06:33:15;23.10;99.90
14236;DHT22;7202;50.718;7.072;2023-06-26T06:35:43;23.10;99.90
14236;DHT22;7202;50.718;7.072;2023-06-26T06:38:13;23.00;99.90
14236;DHT22;7202;50.718;7.072;2023-06-26T06:40:42;22.90;99.90
14236;DHT22;7202;50.718;7.072;2023-06-26T06:43:10;22.80;99.90
14236;DHT22;7202;50.718;7.072;2023-06-26T06:45:39;22.70;99.90
14236;DHT22;7202;50.718;7.072;2023-06-26T06:48:08;22.60;99.90
14236;DHT22;7202;50.718;7.072;2023-06-26T06:50:37;22.70;99.90
14236;DHT22;7202;50.718;7.072;2023-06-26T06:53:07;22.70;99.90
14236;DHT22;7202;50.718;7.072;2023-06-26T06:55:37;22.80;99.90
14236;DHT22;7202;50.718;7.072;2023-06-26T06:58:05;22.70;99.90
14236;DHT22;7202;50.718;7.072;2023-06-26T07:00:34;22.70;99.90
14236;DHT22;7202;50.718;7.072;2023-06-26T07:03:03;22.50;99.90
14236;DHT22;7202;50.718;7.072;2023-06-26T07:05:32;22.50;99.90
14236;DHT22;7202;50.718;7.072;2023-06-26T07:08:01;22.50;99.90
14236;DHT22;7202;50.718;7.072;2023-06-26T07:10:31;22.60;99.90
14236;DHT22;7202;50.718;7.072;2023-06-26T07:13:01;22.60;99.90
14236;DHT22;7202;50.718;7.072;2023-06-26T07:15:30;22.60;99.90
14236;DHT22;7202;50.718;7.072;2023-06-26T07:17:59;22.50;99.90
14236;DHT22;7202;50.718;7.072;2023-06-26T07:20:28;22.50;99.90
14236;DHT22;7202;50.718;7.072;2023-06-26T07:22:56;22.40;99.90
14236;DHT22;7202;50.718;7.072;2023-06-26T07:25:25;22.50;99.90
14236;DHT22;7202;50.718;7.072;2023-06-26T07:27:54;22.50;99.90
14236;DHT22;7202;50.718;7.072;2023-06-26T07:30:24;22.50;99.90
14236;DHT22;7202;50.718;7.072;2023-06-26T07:32:52;22.60;99.90
14236;DHT22;7202;50.718;7.072;2023-06-26T07:35:21;22.70;99.90
14236;DHT22;7202;50.718;7.072;2023-06-26T07:37:50;22.80;99.90
14236;DHT22;7202;50.718;7.072;2023-06-26T07:40:18;22.80;99.90
14236;DHT22;7202;50.718;7.072;2023-06-26T07:42:47;22.90;99.90
14236;DHT22;7202;50.718;7.072;2023-06-26T07:45:16;22.90;99.90
14236;DHT22;7202;50.718;7.072;2023-06-26T07:47:46;22.90;99.90
14236;DHT22;7202;50.718;7.072;2023-06-26T07:50:15;22.90;99.90
14236;DHT22;7202;50.718;7.072;2023-06-26T07:52:48;22.90;99.90
14236;DHT22;7202;50.718;7.072;2023-06-26T07:55:17;23.00;99.90
14236;DHT22;7202;50.718;7.072;2023-06-26T07:57:46;22.90;99.90
14236;DHT22;7202;50.718;7.072;2023-06-26T08:00:15;23.00;99.90
14236;DHT22;7202;50.718;7.072;2023-06-26T08:02:45;23.00;99.90
14236;DHT22;7202;50.718;7.072;2023-06-26T08:05:14;23.10;99.90
14236;DHT22;7202;50.718;7.072;2023-06-26T08:07:43;23.10;99.90
14236;DHT22;7202;50.718;7.072;2023-06-26T08:10:11;23.10;99.90
14236;DHT22;7202;50.718;7.072;2023-06-26T08:12:40;23.10;99.90
14236;DHT22;7202;50.718;7.072;2023-06-26T08:15:10;23.10;99.90
14236;DHT22;7202;50.718;7.072;2023-06-26T08:17:39;23.10;99.90
14236;DHT22;7202;50.718;7.072;2023-06-26T08:20:10;23.10;99.90
14236;DHT22;7202;50.718;7.072;2023-06-26T08:22:39;23.20;99.90
14236;DHT22;7202;50.718;7.072;2023-06-26T08:25:09;23.20;99.90
14236;DHT22;7202;50.718;7.072;2023-06-26T08:27:37;23.20;99.90
14236;DHT22;7202;50.718;7.072;2023-06-26T08:30:07;23.20;99.90
14236;DHT22;7202;50.718;7.072;2023-06-26T08:32:35;23.30;99.90
14236;DHT22;7202;50.718;7.072;2023-06-26T08:35:05;23.30;99.90
14236;DHT22;7202;50.718;7.072;2023-06-26T08:37:35;23.30;99.90
14236;DHT22;7202;50.718;7.072;2023-06-26T08:40:05;23.40;99.90
14236;DHT22;7202;50.718;7.072;2023-06-26T08:42:35;23.50;99.90
14236;DHT22;7202;50.718;7.072;2023-06-26T08:45:04;23.50;99.90
14236;DHT22;7202;50.718;7.072;2023-06-26T08:47:35;23.60;99.90
14236;DHT22;7202;50.718;7.072;2023-06-26T08:50:08;23.60;99.90
14236;DHT22;7202;50.718;7.072;2023-06-26T08:52:43;23.60;99.90
14236;DHT22;7202;50.718;7.072;2023-06-26T08:55:15;23.60;99.90
14236;DHT22;7202;50.718;7.072;2023-06-26T08:57:44;23.60;99.90
14236;DHT22;7202;50.718;7.072;2023-06-26T09:00:15;23.50;99.90
14236;DHT22;7202;50.718;7.072;2023-06-26T09:02:45;23.50;99.90
14236;DHT22;7202;50.718;7.072;2023-06-26T09:05:14;23.40;99.90
14236;DHT22;7202;50.718;7.072;2023-06-26T09:07:44;23.40;99.90
14236;DHT22;7202;50.718;7.072;2023-06-26T09:10:13;23.40;99.90
14236;DHT22;7202;50.718;7.072;2023-06-26T09:12:46;23.40;99.90
14236;DHT22;7202;50.718;7.072;2023-06-26T09:15:15;23.40;99.90
14236;DHT22;7202;50.718;7.072;2023-06-26T09:17:44;23.40;99.90
14236;DHT22;7202;50.718;7.072;2023-06-26T09:20:13;23.40;99.90
14236;DHT22;7202;50.718;7.072;2023-06-26T09:22:46;23.50;99.90
14236;DHT22;7202;50.718;7.072;2023-06-26T09:25:17;23.50;99.90
14236;DHT22;7202;50.718;7.072;2023-06-26T09:27:46;23.50;99.90
14236;DHT22;7202;50.718;7.072;2023-06-26T09:30:17;23.60;99.90
14236;DHT22;7202;50.718;7.072;2023-06-26T09:32:46;23.60;99.90
14236;DHT22;7202;50.718;7.072;2023-06-26T09:35:15;23.70;99.90
14236;DHT22;7202;50.718;7.072;2023-06-26T09:37:46;23.80;99.90
14236;DHT22;7202;50.718;7.072;2023-06-26T09:40:15;23.90;99.90
14236;DHT22;7202;50.718;7.072;2023-06-26T09:42:44;23.90;99.90
14236;DHT22;7202;50.718;7.072;2023-06-26T09:45:19;23.80;99.90
14236;DHT22;7202;50.718;7.072;2023-06-26T09:47:48;23.80;99.90
14236;DHT22;7202;50.718;7.072;2023-06-26T09:50:23;23.80;99.90
14236;DHT22;7202;50.718;7.072;2023-06-26T09:52:56;23.80;99.90
14236;DHT22;7202;50.718;7.072;2023-06-26T09:55:26;23.80;99.90
14236;DHT22;7202;50.718;7.072;2023-06-26T09:57:57;23.70;99.90
14236;DHT22;7202;50.718;7.072;2023-06-26T10:00:31;23.70;99.90
14236;DHT22;7202;50.718;7.072;2023-06-26T10:03:00;23.70;99.90
14236;DHT22;7202;50.718;7.072;2023-06-26T10:05:29;23.70;99.90
14236;DHT22;7202;50.718;7.072;2023-06-26T10:07:59;23.70;99.90
14236;DHT22;7202;50.718;7.072;2023-06-26T10:10:28;23.70;99.90
14236;DHT22;7202;50.718;7.072;2023-06-26T10:13:00;23.70;99.90
14236;DHT22;7202;50.718;7.072;2023-06-26T10:15:31;23.70;99.90
14236;DHT22;7202;50.718;7.072;2023-06-26T10:17:59;23.60;99.90
14236;DHT22;7202;50.718;7.072;2023-06-26T10:20:28;23.70;99.90
14236;DHT22;7202;50.718;7.072;2023-06-26T10:23:00;23.70;99.90
14236;DHT22;7202;50.718;7.072;2023-06-26T10:25:31;23.70;99.90
14236;DHT22;7202;50.718;7.072;2023-06-26T10:28:01;23.70;99.90
14236;DHT22;7202;50.718;7.072;2023-06-26T10:30:33;23.80;99.90
14236;DHT22;7202;50.718;7.072;2023-06-26T10:33:04;23.90;99.90
14236;DHT22;7202;50.718;7.072;2023-06-26T10:35:42;23.90;99.90
14236;DHT22;7202;50.718;7.072;2023-06-26T10:38:12;24.00;99.90
14236;DHT22;7202;50.718;7.072;2023-06-26T10:40:41;24.10;99.90
14236;DHT22;7202;50.718;7.072;2023-06-26T10:43:12;24.20;99.90
14236;DHT22;7202;50.718;7.072;2023-06-26T10:45:44;24.40;99.90
14236;DHT22;7202;50.718;7.072;2023-06-26T10:48:14;24.40;99.90
14236;DHT22;7202;50.718;7.072;2023-06-26T10:50:47;24.30;99.90
14236;DHT22;7202;50.718;7.072;2023-06-26T10:53:22;24.20;99.90
14236;DHT22;7202;50.718;7.072;2023-06-26T10:55:59;24.20;99.90
14236;DHT22;7202;50.718;7.072;2023-06-26T10:58:33;24.20;99.90
14236;DHT22;7202;50.718;7.072;2023-06-26T11:01:27;24.20;99.90
14236;DHT22;7202;50.718;7.072;2023-06-26T11:04:14;24.20;99.90
14236;DHT22;7202;50.718;7.072;2023-06-26T11:06:46;24.20;99.90
14236;DHT22;7202;50.718;7.072;2023-06-26T11:09:24;24.30;99.90
14236;DHT22;7202;50.718;7.072;2023-06-26T11:11:57;24.30;99.90
14236;DHT22;7202;50.718;7.072;2023-06-26T11:14:35;24.40;99.90
14236;DHT22;7202;50.718;7.072;2023-06-26T11:17:04;24.40;99.90
14236;DHT22;7202;50.718;7.072;2023-06-26T11:19:34;24.40;99.90
14236;DHT22;7202;50.718;7.072;2023-06-26T11:22:04;24.50;99.90
14236;DHT22;7202;50.718;7.072;2023-06-26T11:24:36;24.60;99.90
14236;DHT22;7202;50.718;7.072;2023-06-26T11:27:05;24.70;99.90
14236;DHT22;7202;50.718;7.072;2023-06-26T11:29:33;24.80;99.90
14236;DHT22;7202;50.718;7.072;2023-06-26T11:32:04;24.80;99.90
14236;DHT22;7202;50.718;7.072;2023-06-26T11:34:34;24.80;99.90
14236;DHT22;7202;50.718;7.072;2023-06-26T11:37:05;24.70;99.90
14236;DHT22;7202;50.718;7.072;2023-06-26T11:39:35;24.60;99.90
14236;DHT22;7202;50.718;7.072;2023-06-26T11:42:05;24.50;99.90
14236;DHT22;7202;50.718;7.072;2023-06-26T11:44:40;24.50;99.90
14236;DHT22;7202;50.718;7.072;2023-06-26T11:47:13;24.50;99.90
14236;DHT22;7202;50.718;7.072;2023-06-26T11:49:53;24.60;99.90
14236;DHT22;7202;50.718;7.072;2023-06-26T11:52:21;24.50;99.90
14236;DHT22;7202;50.718;7.072;2023-06-26T11:54:51;24.50;99.90
14236;DHT22;7202;50.718;7.072;2023-06-26T11:57:20;24.50;99.90
14236;DHT22;7202;50.718;7.072;2023-06-26T11:59:50;24.50;99.90
14236;DHT22;7202;50.718;7.072;2023-06-26T12:02:20;24.60;99.90
14236;DHT22;7202;50.718;7.072;2023-06-26T12:04:49;24.70;99.90
14236;DHT22;7202;50.718;7.072;2023-06-26T12:07:18;24.80;99.90
14236;DHT22;7202;50.718;7.072;2023-06-26T12:09:47;24.90;99.90
14236;DHT22;7202;50.718;7.072;2023-06-26T12:12:18;25.00;99.90
14236;DHT22;7202;50.718;7.072;2023-06-26T12:14:47;25.00;99.90
14236;DHT22;7202;50.718;7.072;2023-06-26T12:17:16;24.90;99.90
14236;DHT22;7202;50.718;7.072;2023-06-26T12:19:46;24.80;99.90
14236;DHT22;7202;50.718;7.072;2023-06-26T12:22:16;24.80;99.90
14236;DHT22;7202;50.718;7.072;2023-06-26T12:24:46;24.80;99.90
14236;DHT22;7202;50.718;7.072;2023-06-26T12:27:18;24.90;99.90
14236;DHT22;7202;50.718;7.072;2023-06-26T12:29:50;24.90;99.90
14236;DHT22;7202;50.718;7.072;2023-06-26T12:32:22;25.00;99.90
14236;DHT22;7202;50.718;7.072;2023-06-26T12:34:51;25.10;99.90
14236;DHT22;7202;50.718;7.072;2023-06-26T12:37:20;25.20;99.90
14236;DHT22;7202;50.718;7.072;2023-06-26T12:39:49;25.20;99.90
14236;DHT22;7202;50.718;7.072;2023-06-26T12:42:21;25.30;99.90
14236;DHT22;7202;50.718;7.072;2023-06-26T12:44:51;25.30;99.90
14236;DHT22;7202;50.718;7.072;2023-06-26T12:47:25;25.20;99.90
14236;DHT22;7202;50.718;7.072;2023-06-26T12:49:55;25.20;99.90
14236;DHT22;7202;50.718;7.072;2023-06-26T12:52:25;25.20;99.90
14236;DHT22;7202;50.718;7.072;2023-06-26T12:54:55;25.30;99.90
14236;DHT22;7202;50.718;7.072;2023-06-26T12:57:26;25.40;99.90
14236;DHT22;7202;50.718;7.072;2023-06-26T12:59:54;25.40;99.90
14236;DHT22;7202;50.718;7.072;2023-06-26T13:02:23;25.30;99.90
14236;DHT22;7202;50.718;7.072;2023-06-26T13:04:52;25.30;99.90
14236;DHT22;7202;50.718;7.072;2023-06-26T13:07:21;25.40;99.90
14236;DHT22;7202;50.718;7.072;2023-06-26T13:09:52;25.50;99.90
14236;DHT22;7202;50.718;7.072;2023-06-26T13:12:21;25.70;99.90
14236;DHT22;7202;50.718;7.072;2023-06-26T13:14:51;25.70;99.90
14236;DHT22;7202;50.718;7.072;2023-06-26T13:17:20;25.80;99.90
14236;DHT22;7202;50.718;7.072;2023-06-26T13:19:48;25.80;99.90
14236;DHT22;7202;50.718;7.072;2023-06-26T13:22:17;25.80;99.90
14236;DHT22;7202;50.718;7.072;2023-06-26T13:24:45;25.80;99.90
14236;DHT22;7202;50.718;7.072;2023-06-26T13:27:14;25.80;99.90
14236;DHT22;7202;50.718;7.072;2023-06-26T13:29:43;25.80;99.90
14236;DHT22;7202;50.718;7.072;2023-06-26T13:32:13;25.80;99.90
14236;DHT22;7202;50.718;7.072;2023-06-26T13:34:42;25.90;99.90
14236;DHT22;7202;50.718;7.072;2023-06-26T13:37:10;26.00;99.90
14236;DHT22;7202;50.718;7.072;2023-06-26T13:39:39;26.00;99.90
14236;DHT22;7202;50.718;7.072;2023-06-26T13:42:08;25.90;99.90
14236;DHT22;7202;50.718;7.072;2023-06-26T13:44:37;25.80;99.90
14236;DHT22;7202;50.718;7.072;2023-06-26T13:47:27;25.60;99.90
14236;DHT22;7202;50.718;7.072;2023-06-26T13:49:55;25.40;99.90
14236;DHT22;7202;50.718;7.072;2023-06-26T13:52:25;25.20;99.90
14236;DHT22;7202;50.718;7.072;2023-06-26T13:54:53;25.10;99.90
14236;DHT22;7202;50.718;7.072;2023-06-26T13:57:22;25.00;99.90
14236;DHT22;7202;50.718;7.072;2023-06-26T13:59:51;25.00;99.90
14236;DHT22;7202;50.718;7.072;2023-06-26T14:02:19;25.20;99.90
14236;DHT22;7202;50.718;7.072;2023-06-26T14:04:49;25.20;99.90
14236;DHT22;7202;50.718;7.072;2023-06-26T14:07:18;25.20;99.90
14236;DHT22;7202;50.718;7.072;2023-06-26T14:09:47;25.20;99.90
14236;DHT22;7202;50.718;7.072;2023-06-26T14:12:15;25.10;99.90
14236;DHT22;7202;50.718;7.072;2023-06-26T14:14:44;25.00;99.90
14236;DHT22;7202;50.718;7.072;2023-06-26T14:17:12;25.00;99.90
14236;DHT22;7202;50.718;7.072;2023-06-26T14:19:43;25.00;99.90
14236;DHT22;7202;50.718;7.072;2023-06-26T14:22:14;25.00;99.90
14236;DHT22;7202;50.718;7.072;2023-06-26T14:24:43;24.90;99.90
14236;DHT22;7202;50.718;7.072;2023-06-26T14:27:11;24.90;99.90
14236;DHT22;7202;50.718;7.072;2023-06-26T14:29:40;24.80;99.90
14236;DHT22;7202;50.718;7.072;2023-06-26T14:32:08;24.60;99.90
14236;DHT22;7202;50.718;7.072;2023-06-26T14:34:37;24.60;99.90
14236;DHT22;7202;50.718;7.072;2023-06-26T14:37:05;24.60;99.90
14236;DHT22;7202;50.718;7.072;2023-06-26T14:39:35;24.60;99.90
14236;DHT22;7202;50.718;7.072;2023-06-26T14:42:07;24.60;99.90
14236;DHT22;7202;50.718;7.072;2023-06-26T14:44:36;24.50;99.90
14236;DHT22;7202;50.718;7.072;2023-06-26T14:47:05;24.50;99.90
14236;DHT22;7202;50.718;7.072;2023-06-26T14:49:34;24.50;99.90
14236;DHT22;7202;50.718;7.072;2023-06-26T14:52:03;24.40;99.90
14236;DHT22;7202;50.718;7.072;2023-06-26T14:54:32;24.30;99.90
14236;DHT22;7202;50.718;7.072;2023-06-26T14:57:03;24.30;99.90
14236;DHT22;7202;50.718;7.072;2023-06-26T14:59:31;24.20;99.90
14236;DHT22;7202;50.718;7.072;2023-06-26T15:02:00;24.10;99.90
14236;DHT22;7202;50.718;7.072;2023-06-26T15:04:29;24.10;99.90
14236;DHT22;7202;50.718;7.072;2023-06-26T15:06:58;24.10;99.90
14236;DHT22;7202;50.718;7.072;2023-06-26T15:09:27;24.10;99.90
14236;DHT22;7202;50.718;7.072;2023-06-26T15:11:55;24.20;99.90
14236;DHT22;7202;50.718;7.072;2023-06-26T15:14:25;24.20;99.90
14236;DHT22;7202;50.718;7.072;2023-06-26T15:16:54;24.20;99.90
14236;DHT22;7202;50.718;7.072;2023-06-26T15:19:22;24.30;99.90
14236;DHT22;7202;50.718;7.072;2023-06-26T15:21:51;24.20;99.90
14236;DHT22;7202;50.718;7.072;2023-06-26T15:24:19;24.20;99.90
14236;DHT22;7202;50.718;7.072;2023-06-26T15:26:48;24.20;99.90
14236;DHT22;7202;50.718;7.072;2023-06-26T15:29:16;24.10;99.90
14236;DHT22;7202;50.718;7.072;2023-06-26T15:31:47;24.00;99.90
14236;DHT22;7202;50.718;7.072;2023-06-26T15:34:16;24.00;99.90
14236;DHT22;7202;50.718;7.072;2023-06-26T15:36:44;24.00;99.90
14236;DHT22;7202;50.718;7.072;2023-06-26T15:39:13;24.00;99.90
14236;DHT22;7202;50.718;7.072;2023-06-26T15:41:41;24.00;99.90
14236;DHT22;7202;50.718;7.072;2023-06-26T15:44:11;24.10;99.90
14236;DHT22;7202;50.718;7.072;2023-06-26T15:46:40;24.00;99.90
14236;DHT22;7202;50.718;7.072;2023-06-26T15:49:09;24.00;99.90
14236;DHT22;7202;50.718;7.072;2023-06-26T15:51:38;24.00;99.90
14236;DHT22;7202;50.718;7.072;2023-06-26T15:54:07;24.00;99.90
14236;DHT22;7202;50.718;7.072;2023-06-26T15:56:35;24.00;99.90
14236;DHT22;7202;50.718;7.072;2023-06-26T15:59:04;23.90;99.90
14236;DHT22;7202;50.718;7.072;2023-06-26T16:01:32;23.80;99.90